หน้าหลัก
METAR-TAF:

METAR-TAF

ท่าอากาศยาน :

โตเกียว Heliport, ญี่ปุ่น

ละติจูด: 35-38N, ลองจิจูด: 139-51E, ความสูง: 5 ม.

การสังเกตสภาพอากาศปัจจุบัน

รายงานได้ทำขึ้นเมื่อ 35 นาทีที่แล้ว ณ เวลา 04:00 UTC
ลม 8 นอตจากใต้, แปรผันระหว่างตะวันออกเฉียงใต้ และตะวันตกเฉียงใต้
อุณหภูมิ 32°C
ความชื้น 67%
ความกดอากาศ 1008 hPa
ทัศนวิสัย 10 กม. หรือมากกว่า
มีเมฆน้อยที่ความสูง 3000 ฟุต
มีเมฆเป็นส่วนมากเว้นเป็นระยะ

METAR: RJTI 250400Z 19008KT 140V230 9999 FEW030 BKN/// 32/25 Q1008

เวลา: 13:35 (04:35 UTC)


TAF: หายไป

สังเกตการณ์สภาพอากาศและพยากรณ์อากาศของสนามบินมากกว่า 4000 แห่ง (รายงาน METAR และ TAF).

สถานีที่ดูได้จะแสดงไว้ด้วยจุดสีเหลืองและสีแดงบนแผนที่.

เลื่อนเมาส์ไปเหนือจุดเพื่อดูชื่อสถานี.

แล้วคลิกเพื่อดูสังเกตการณ์และการพยากรณ์สภาพอากาศ.

ในการเปลี่ยนแผนที่: คลิกที่ปุ่มสีเขียวที่มีกากบาทสีดำเพื่อซูมเข้า; ที่ปุ่มสีเขียวที่มีขีดเพื่อซูมออก; หรือที่ลูกศรสีเขียวเพื่อไปยังแผนที่ที่อยู่ติดกัน.


METAR-TAF: